createdAt,value
2018-11-26T00:01:55.500Z,13.97
2018-11-26T00:04:23.800Z,14.60
2018-11-26T00:06:52.128Z,13.10
2018-11-26T00:09:20.429Z,13.43
2018-11-26T00:11:48.850Z,13.50
2018-11-26T00:14:17.174Z,14.80
2018-11-26T00:16:45.501Z,13.87
2018-11-26T00:19:13.804Z,13.73
2018-11-26T00:21:42.120Z,13.90
2018-11-26T00:24:10.461Z,14.37
2018-11-26T00:26:38.806Z,13.23
2018-11-26T00:29:07.163Z,13.57
2018-11-26T00:31:35.478Z,13.87
2018-11-26T00:34:03.795Z,12.77
2018-11-26T00:36:32.137Z,12.70
2018-11-26T00:39:00.458Z,13.57
2018-11-26T00:41:28.786Z,12.67
2018-11-26T00:43:57.143Z,12.10
2018-11-26T00:46:25.435Z,13.17
2018-11-26T00:48:54.053Z,12.57
2018-11-26T00:51:22.362Z,11.90
2018-11-26T00:53:50.748Z,12.90
2018-11-26T00:56:19.048Z,11.83
2018-11-26T00:58:47.404Z,12.27
2018-11-26T01:01:15.745Z,12.00
2018-11-26T01:03:44.101Z,11.37
2018-11-26T01:06:12.388Z,12.07
2018-11-26T01:08:40.699Z,11.97
2018-11-26T01:11:09.253Z,12.73
2018-11-26T01:13:37.575Z,12.23
2018-11-26T01:16:05.967Z,11.70
2018-11-26T01:18:34.288Z,12.20
2018-11-26T01:21:02.605Z,12.63
2018-11-26T01:23:31.150Z,12.67
2018-11-26T01:25:59.464Z,11.97
2018-11-26T01:28:27.756Z,12.77
2018-11-26T01:30:56.130Z,12.63
2018-11-26T01:33:24.445Z,12.33
2018-11-26T01:35:52.775Z,12.43
2018-11-26T01:38:21.120Z,12.73
2018-11-26T01:40:51.900Z,12.63
2018-11-26T01:43:20.895Z,13.07
2018-11-26T01:45:49.245Z,13.03
2018-11-26T01:48:17.546Z,12.97
2018-11-26T01:50:45.864Z,12.07
2018-11-26T01:53:14.154Z,12.33
2018-11-26T01:55:42.452Z,13.50
2018-11-26T01:58:10.747Z,13.70
2018-11-26T02:00:39.166Z,13.03
2018-11-26T02:03:07.612Z,13.37
2018-11-26T02:05:36.445Z,13.90
2018-11-26T02:08:04.987Z,13.13
2018-11-26T02:10:33.314Z,13.30
2018-11-26T02:13:01.586Z,20.37
2018-11-26T02:15:35.554Z,14.87
2018-11-26T02:18:03.853Z,13.87
2018-11-26T02:20:32.577Z,13.50
2018-11-26T02:23:00.911Z,13.63
2018-11-26T02:25:29.211Z,13.63
2018-11-26T02:27:57.565Z,14.43
2018-11-26T02:30:25.975Z,12.80
2018-11-26T02:32:54.327Z,13.03
2018-11-26T02:35:22.654Z,13.80
2018-11-26T02:37:52.233Z,14.37
2018-11-26T02:40:27.819Z,13.77
2018-11-26T02:42:56.252Z,14.33
2018-11-26T02:45:24.615Z,13.83
2018-11-26T02:47:52.963Z,13.37
2018-11-26T02:50:21.262Z,14.27
2018-11-26T02:52:49.588Z,13.57
2018-11-26T02:55:17.890Z,15.00
2018-11-26T02:57:46.320Z,14.30
2018-11-26T03:00:14.768Z,15.17
2018-11-26T03:02:43.101Z,13.93
2018-11-26T03:05:13.517Z,14.73
2018-11-26T03:07:41.872Z,14.60
2018-11-26T03:10:10.814Z,15.17
2018-11-26T03:12:39.616Z,15.30
2018-11-26T03:15:10.489Z,15.80
2018-11-26T03:17:39.461Z,15.27
2018-11-26T03:20:09.067Z,16.53
2018-11-26T03:22:37.394Z,16.20
2018-11-26T03:25:07.016Z,16.53
2018-11-26T03:27:35.323Z,16.47
2018-11-26T03:30:04.388Z,15.60
2018-11-26T03:32:32.745Z,16.10
2018-11-26T03:35:01.032Z,16.63
2018-11-26T03:37:29.398Z,15.90
2018-11-26T03:39:57.699Z,17.37
2018-11-26T03:42:26.006Z,16.00
2018-11-26T03:44:54.381Z,16.87
2018-11-26T03:47:22.725Z,16.10
2018-11-26T03:49:51.052Z,16.97
2018-11-26T03:52:19.378Z,15.77
2018-11-26T03:54:47.734Z,27.20
2018-11-26T03:57:16.096Z,25.77
2018-11-26T03:59:44.497Z,17.63
2018-11-26T04:02:12.788Z,16.73
2018-11-26T04:04:41.243Z,16.43
2018-11-26T04:07:09.549Z,16.93
2018-11-26T04:09:37.863Z,16.93
2018-11-26T04:12:06.234Z,15.17
2018-11-26T04:14:34.610Z,17.17
2018-11-26T04:17:05.557Z,16.83
2018-11-26T04:19:33.911Z,16.77
2018-11-26T04:22:02.213Z,16.27
2018-11-26T04:24:30.515Z,16.80
2018-11-26T04:26:58.816Z,17.27
2018-11-26T04:29:27.181Z,16.70
2018-11-26T04:31:55.499Z,17.40
2018-11-26T04:34:23.823Z,16.30
2018-11-26T04:36:52.175Z,17.53
2018-11-26T04:39:20.519Z,16.80
2018-11-26T04:41:48.818Z,17.67
2018-11-26T04:44:17.157Z,17.47
2018-11-26T04:46:45.476Z,17.03
2018-11-26T04:49:13.785Z,17.10
2018-11-26T04:51:42.144Z,16.90
2018-11-26T04:54:10.438Z,16.23
2018-11-26T04:56:38.747Z,16.77
2018-11-26T04:59:07.053Z,16.73
2018-11-26T05:01:35.397Z,18.00
2018-11-26T05:04:03.709Z,16.47
2018-11-26T05:06:32.131Z,17.13
2018-11-26T05:09:00.468Z,18.57
2018-11-26T05:11:28.918Z,18.33
2018-11-26T05:13:57.356Z,17.33
2018-11-26T05:16:26.761Z,16.67
2018-11-26T05:18:55.077Z,17.83
2018-11-26T05:21:23.722Z,16.70
2018-11-26T05:23:52.867Z,16.40
2018-11-26T05:26:21.204Z,16.57
2018-11-26T05:28:49.606Z,16.90
2018-11-26T05:31:17.998Z,16.80
2018-11-26T05:33:46.299Z,17.30
2018-11-26T05:36:14.666Z,17.83
2018-11-26T05:38:42.974Z,16.60
2018-11-26T05:41:11.306Z,17.53
2018-11-26T05:43:39.593Z,17.93
2018-11-26T05:46:07.922Z,17.43
2018-11-26T05:48:36.229Z,15.77
2018-11-26T05:51:04.749Z,16.67
2018-11-26T05:53:33.116Z,17.47
2018-11-26T05:56:01.432Z,16.67
2018-11-26T05:58:29.769Z,16.67
2018-11-26T06:00:58.128Z,17.30
2018-11-26T06:03:26.636Z,17.30
2018-11-26T06:05:54.960Z,17.90
2018-11-26T06:08:23.435Z,17.90
2018-11-26T06:10:51.857Z,17.20
2018-11-26T06:13:20.172Z,18.40
2018-11-26T06:15:48.471Z,17.57
2018-11-26T06:18:16.932Z,17.67
2018-11-26T06:20:45.317Z,18.97
2018-11-26T06:23:13.669Z,18.27
2018-11-26T06:25:42.047Z,19.83
2018-11-26T06:28:10.406Z,19.67
2018-11-26T06:30:38.789Z,19.13
2018-11-26T06:33:07.113Z,19.93
2018-11-26T06:35:35.446Z,20.97
2018-11-26T06:38:03.732Z,19.33
2018-11-26T06:40:32.060Z,19.50
2018-11-26T06:43:00.419Z,19.20
2018-11-26T06:45:28.704Z,21.03
2018-11-26T06:48:02.272Z,19.60
2018-11-26T06:50:32.620Z,19.73
2018-11-26T06:53:00.951Z,20.60
2018-11-26T06:55:29.285Z,17.93
2018-11-26T06:57:57.676Z,18.93
2018-11-26T07:00:26.089Z,18.07
2018-11-26T07:02:54.390Z,18.40
2018-11-26T07:05:23.193Z,18.37
2018-11-26T07:07:51.547Z,17.87
2018-11-26T07:10:20.753Z,17.43
2018-11-26T07:12:49.136Z,16.83
2018-11-26T07:15:18.905Z,18.10
2018-11-26T07:17:49.751Z,17.97
2018-11-26T07:20:19.790Z,17.77
2018-11-26T07:22:48.166Z,17.00
2018-11-26T07:25:17.648Z,15.90
2018-11-26T07:27:51.684Z,16.03
2018-11-26T07:30:21.226Z,16.20
2018-11-26T07:32:49.576Z,15.60
2018-11-26T07:35:17.898Z,15.20
2018-11-26T07:37:46.222Z,15.43
2018-11-26T07:40:19.476Z,16.17
2018-11-26T07:42:51.280Z,16.03
2018-11-26T07:45:19.614Z,16.20
2018-11-26T07:47:47.946Z,16.30
2018-11-26T07:50:16.949Z,15.93
2018-11-26T07:52:45.321Z,16.17
2018-11-26T07:55:16.676Z,16.07
2018-11-26T07:57:45.090Z,15.47
2018-11-26T08:00:15.438Z,16.27
2018-11-26T08:02:44.038Z,16.53
2018-11-26T08:05:14.452Z,15.53
2018-11-26T08:07:42.780Z,16.10
2018-11-26T08:10:13.318Z,16.00
2018-11-26T08:12:41.732Z,15.97
2018-11-26T08:15:15.613Z,14.97
2018-11-26T08:17:43.903Z,15.13
2018-11-26T08:20:12.562Z,15.20
2018-11-26T08:22:40.901Z,14.63
2018-11-26T08:25:10.312Z,15.10
2018-11-26T08:27:39.053Z,15.10
2018-11-26T08:30:38.557Z,14.73
2018-11-26T08:33:06.877Z,14.13
2018-11-26T08:35:35.262Z,15.10
2018-11-26T08:38:07.505Z,14.17
2018-11-26T08:40:41.060Z,14.30
2018-11-26T08:43:14.900Z,13.70
2018-11-26T08:45:52.865Z,13.60
2018-11-26T08:48:27.433Z,13.90
2018-11-26T08:50:57.808Z,12.53
2018-11-26T08:53:26.171Z,14.03
2018-11-26T08:55:54.517Z,12.20
2018-11-26T08:58:22.847Z,13.33
2018-11-26T09:00:56.641Z,12.23
2018-11-26T09:03:29.398Z,11.63
2018-11-26T09:06:01.371Z,12.33
2018-11-26T09:08:31.107Z,11.17
2018-11-26T09:11:00.171Z,11.13
2018-11-26T09:13:28.523Z,12.10
2018-11-26T09:15:56.829Z,12.03
2018-11-26T09:18:25.142Z,12.10
2018-11-26T09:20:53.552Z,11.40
2018-11-26T09:23:21.905Z,11.57
2018-11-26T09:25:50.195Z,11.20
2018-11-26T09:28:19.199Z,11.53
2018-11-26T09:30:47.589Z,11.70
2018-11-26T09:33:15.961Z,11.17
2018-11-26T09:35:44.290Z,10.77
2018-11-26T09:38:13.157Z,11.30
2018-11-26T09:40:41.237Z,10.97
2018-11-26T09:43:09.560Z,11.00
2018-11-26T09:45:40.524Z,9.50
2018-11-26T09:48:06.425Z,10.47
2018-11-26T09:50:35.428Z,10.10
2018-11-26T09:53:03.759Z,10.50
2018-11-26T09:55:32.071Z,10.17
2018-11-26T09:58:00.414Z,10.10
2018-11-26T10:00:28.779Z,9.97
2018-11-26T10:02:57.097Z,9.63
2018-11-26T10:05:26.674Z,9.53
2018-11-26T10:07:54.773Z,9.00
2018-11-26T10:10:23.073Z,9.37
2018-11-26T10:12:51.383Z,8.97
2018-11-26T10:15:20.753Z,8.77
2018-11-26T10:17:49.119Z,9.63
2018-11-26T10:20:17.467Z,8.07
2018-11-26T10:22:46.425Z,8.40
2018-11-26T10:25:16.894Z,7.23
2018-11-26T10:27:45.246Z,8.10
2018-11-26T10:30:14.617Z,8.07
2018-11-26T10:32:43.546Z,7.50
2018-11-26T10:35:12.904Z,7.27
2018-11-26T10:37:41.326Z,7.87
2018-11-26T10:40:14.599Z,7.90
2018-11-26T10:42:42.896Z,8.00
2018-11-26T10:45:14.304Z,7.47
2018-11-26T10:47:49.426Z,8.93
2018-11-26T10:50:20.121Z,7.27
2018-11-26T10:52:51.661Z,7.40
2018-11-26T10:55:24.348Z,7.33
2018-11-26T10:57:52.751Z,7.27
2018-11-26T11:00:26.533Z,7.03
2018-11-26T11:02:54.881Z,7.13
2018-11-26T11:05:23.218Z,7.53
2018-11-26T11:07:51.520Z,7.07
2018-11-26T11:10:29.027Z,7.20
2018-11-26T11:12:57.419Z,6.93
2018-11-26T11:15:25.808Z,7.03
2018-11-26T11:17:54.346Z,7.20
2018-11-26T11:20:24.400Z,7.37
2018-11-26T11:22:52.926Z,6.90
2018-11-26T11:25:21.772Z,7.87
2018-11-26T11:27:50.362Z,7.57
2018-11-26T11:30:19.888Z,7.00
2018-11-26T11:32:48.231Z,6.77
2018-11-26T11:35:16.838Z,7.50
2018-11-26T11:37:46.249Z,7.33
2018-11-26T11:40:31.328Z,7.80
2018-11-26T11:43:00.419Z,8.27
2018-11-26T11:45:29.533Z,7.80
2018-11-26T11:47:57.837Z,7.73
2018-11-26T11:50:26.206Z,7.07
2018-11-26T11:52:54.586Z,7.60
2018-11-26T11:55:24.256Z,8.40
2018-11-26T11:57:53.015Z,7.40
2018-11-26T12:00:35.914Z,8.10
2018-11-26T12:03:06.165Z,7.43
2018-11-26T12:05:34.464Z,7.80
2018-11-26T12:08:02.783Z,7.97
2018-11-26T12:10:31.205Z,7.87
2018-11-26T12:12:59.510Z,8.30
2018-11-26T12:15:27.886Z,9.20
2018-11-26T12:17:56.276Z,13.17
2018-11-26T12:20:24.643Z,7.60
2018-11-26T12:22:52.957Z,7.77
2018-11-26T12:25:21.757Z,9.20
2018-11-26T12:27:50.055Z,8.77
2018-11-26T12:30:20.613Z,8.07
2018-11-26T12:32:48.954Z,8.70
2018-11-26T12:35:17.331Z,8.10
2018-11-26T12:37:45.674Z,8.70
2018-11-26T12:40:15.441Z,8.57
2018-11-26T12:42:43.737Z,7.50
2018-11-26T12:45:19.557Z,9.03
2018-11-26T12:47:47.865Z,9.47
2018-11-26T12:50:16.200Z,10.00
2018-11-26T12:52:44.526Z,9.20
2018-11-26T12:55:14.085Z,9.67
2018-11-26T12:57:43.313Z,9.00
2018-11-26T13:00:14.857Z,10.07
2018-11-26T13:02:43.546Z,9.30
2018-11-26T13:05:14.156Z,9.00
2018-11-26T13:07:42.504Z,9.10
2018-11-26T13:10:12.937Z,9.20
2018-11-26T13:12:41.342Z,8.23
2018-11-26T13:15:14.046Z,9.30
2018-11-26T13:17:42.462Z,9.00
2018-11-26T13:20:12.916Z,41.00
2018-11-26T13:22:41.244Z,21.70
2018-11-26T13:25:11.546Z,14.90
2018-11-26T13:27:41.348Z,9.67
2018-11-26T13:30:13.181Z,8.90
2018-11-26T13:32:41.572Z,8.73
2018-11-26T13:35:11.566Z,8.83
2018-11-26T13:37:39.866Z,9.47
2018-11-26T13:40:10.590Z,8.83
2018-11-26T13:42:39.270Z,9.23
2018-11-26T13:45:12.345Z,9.77
2018-11-26T13:47:40.958Z,9.83
2018-11-26T13:50:13.831Z,9.77
2018-11-26T13:52:42.186Z,9.37
2018-11-26T13:55:11.950Z,8.83
2018-11-26T13:57:40.382Z,9.80
2018-11-26T14:00:10.250Z,9.17
2018-11-26T14:02:38.847Z,8.80
2018-11-26T14:05:09.699Z,9.63
2018-11-26T14:07:38.083Z,9.57
2018-11-26T14:10:11.023Z,9.40
2018-11-26T14:12:39.477Z,9.93
2018-11-26T14:15:11.738Z,9.90
2018-11-26T14:17:40.185Z,9.37
2018-11-26T14:20:10.350Z,9.70
2018-11-26T14:22:38.949Z,10.03
2018-11-26T14:25:09.195Z,10.17
2018-11-26T14:27:37.523Z,10.13
2018-11-26T14:30:25.476Z,10.50
2018-11-26T14:32:54.183Z,10.43
2018-11-26T14:35:22.586Z,9.77
2018-11-26T14:37:54.219Z,9.93
2018-11-26T14:40:32.837Z,10.13
2018-11-26T14:43:01.168Z,10.43
2018-11-26T14:45:29.490Z,9.43
2018-11-26T14:47:57.812Z,10.10
2018-11-26T14:50:26.118Z,10.43
2018-11-26T14:52:54.551Z,10.23
2018-11-26T14:55:27.231Z,9.70
2018-11-26T14:57:55.602Z,9.87
2018-11-26T15:00:23.945Z,9.87
2018-11-26T15:02:52.258Z,10.23
2018-11-26T15:05:20.635Z,10.07
2018-11-26T15:07:48.979Z,9.83
2018-11-26T15:10:18.590Z,9.67
2018-11-26T15:12:47.306Z,9.77
2018-11-26T15:15:17.589Z,9.97
2018-11-26T15:17:46.311Z,10.63
2018-11-26T15:20:20.821Z,10.53
2018-11-26T15:22:49.685Z,10.23
2018-11-26T15:25:21.182Z,10.80
2018-11-26T15:27:50.016Z,10.23
2018-11-26T15:30:19.591Z,10.17
2018-11-26T15:32:48.014Z,10.43
2018-11-26T15:35:17.423Z,10.20
2018-11-26T15:37:45.748Z,10.00
2018-11-26T15:40:15.040Z,10.00
2018-11-26T15:42:43.436Z,9.70
2018-11-26T15:45:15.211Z,10.67
2018-11-26T15:47:43.559Z,10.57
2018-11-26T15:50:11.918Z,11.23
2018-11-26T15:52:40.285Z,11.23
2018-11-26T15:55:10.321Z,11.77
2018-11-26T15:57:38.651Z,11.70
2018-11-26T16:00:10.688Z,11.47
2018-11-26T16:02:39.077Z,11.70
2018-11-26T16:05:09.777Z,11.37
2018-11-26T16:07:38.143Z,11.67
2018-11-26T16:10:09.724Z,11.33
2018-11-26T16:12:38.108Z,10.83
2018-11-26T16:15:10.046Z,10.53
2018-11-26T16:17:38.410Z,10.67
2018-11-26T16:20:09.967Z,10.20
2018-11-26T16:22:38.294Z,10.47
2018-11-26T16:25:09.053Z,9.53
2018-11-26T16:27:37.369Z,16.00
2018-11-26T16:30:07.851Z,31.93
2018-11-26T16:32:36.873Z,20.57
2018-11-26T16:35:06.951Z,10.73
2018-11-26T16:37:35.337Z,11.00
2018-11-26T16:40:03.810Z,11.20
2018-11-26T16:42:32.189Z,11.30
2018-11-26T16:45:00.539Z,10.10
2018-11-26T16:47:28.856Z,10.67
2018-11-26T16:49:57.251Z,10.53
2018-11-26T16:52:25.652Z,10.23
2018-11-26T16:54:53.957Z,10.57
2018-11-26T16:57:22.340Z,10.20
2018-11-26T16:59:50.861Z,10.87
2018-11-26T17:02:19.206Z,10.87
2018-11-26T17:04:47.502Z,11.10
2018-11-26T17:07:15.819Z,11.00
2018-11-26T17:09:44.133Z,12.37
2018-11-26T17:12:12.570Z,12.23
2018-11-26T17:14:41.306Z,11.53
2018-11-26T17:17:09.630Z,13.00
2018-11-26T17:19:37.984Z,11.27
2018-11-26T17:22:06.302Z,12.60
2018-11-26T17:24:34.662Z,12.40
2018-11-26T17:27:02.982Z,11.97
2018-11-26T17:29:31.313Z,12.70
2018-11-26T17:33:02.425Z,11.87
2018-11-26T17:35:31.354Z,11.77
2018-11-26T17:37:59.675Z,12.43
2018-11-26T17:40:28.043Z,13.07
2018-11-26T17:42:56.613Z,11.87
2018-11-26T17:45:25.583Z,12.80
2018-11-26T17:47:57.225Z,13.50
2018-11-26T17:50:28.989Z,13.00
2018-11-26T17:52:57.395Z,12.70
2018-11-26T17:55:25.704Z,13.03
2018-11-26T17:57:54.100Z,13.83
2018-11-26T18:00:26.092Z,12.20
2018-11-26T18:02:54.410Z,13.37
2018-11-26T18:05:24.183Z,11.93
2018-11-26T18:07:58.374Z,13.07
2018-11-26T18:10:26.787Z,15.15
2018-11-26T18:12:55.083Z,13.43
2018-11-26T18:15:23.568Z,13.43
2018-11-26T18:17:51.955Z,13.53
2018-11-26T18:20:26.917Z,13.10
2018-11-26T18:22:55.406Z,13.53
2018-11-26T18:25:24.751Z,13.23
2018-11-26T18:27:55.792Z,12.67
2018-11-26T18:30:30.736Z,11.60
2018-11-26T18:32:59.123Z,13.67
2018-11-26T18:35:27.478Z,12.27
2018-11-26T18:37:55.823Z,12.77
2018-11-26T18:40:24.193Z,13.63
2018-11-26T18:42:52.510Z,12.00
2018-11-26T18:45:21.054Z,13.23
2018-11-26T18:47:49.641Z,12.47
2018-11-26T18:50:20.192Z,13.10
2018-11-26T18:52:49.358Z,13.00
2018-11-26T18:55:17.971Z,14.00
2018-11-26T18:57:46.351Z,13.23
2018-11-26T19:00:19.658Z,12.20
2018-11-26T19:02:48.069Z,12.60
2018-11-26T19:05:17.305Z,14.03
2018-11-26T19:07:45.667Z,14.60
2018-11-26T19:10:17.248Z,13.30
2018-11-26T19:12:47.419Z,13.77
2018-11-26T19:15:17.739Z,15.17
2018-11-26T19:17:46.683Z,14.60
2018-11-26T19:20:15.062Z,16.90
2018-11-26T19:22:43.370Z,15.57
2018-11-26T19:25:15.435Z,15.60
2018-11-26T19:27:43.759Z,14.70
2018-11-26T19:30:15.072Z,14.47
2018-11-26T19:32:44.458Z,13.53
2018-11-26T19:35:14.153Z,14.33
2018-11-26T19:37:42.539Z,13.17
2018-11-26T19:40:13.050Z,14.20
2018-11-26T19:42:42.238Z,13.13
2018-11-26T19:45:13.694Z,15.37
2018-11-26T19:47:42.259Z,13.60
2018-11-26T19:50:12.156Z,13.77
2018-11-26T19:52:40.469Z,13.70
2018-11-26T19:55:10.898Z,13.87
2018-11-26T19:57:39.275Z,14.23
2018-11-26T20:00:12.580Z,13.23
2018-11-26T20:02:40.933Z,14.37
2018-11-26T20:05:15.214Z,13.93
2018-11-26T20:07:44.582Z,13.87
2018-11-26T20:10:12.917Z,14.20
2018-11-26T20:12:41.241Z,14.73
2018-11-26T20:15:14.298Z,14.17
2018-11-26T20:17:43.015Z,14.33
2018-11-26T20:20:11.457Z,14.37
2018-11-26T20:22:39.800Z,15.67
2018-11-26T20:25:12.827Z,15.13
2018-11-26T20:27:41.409Z,14.63
2018-11-26T20:30:11.696Z,13.63
2018-11-26T20:32:40.694Z,14.70
2018-11-26T20:35:10.272Z,14.07
2018-11-26T20:37:38.614Z,14.27
2018-11-26T20:40:11.910Z,14.47
2018-11-26T20:42:44.649Z,14.27
2018-11-26T20:46:37.533Z,13.33
2018-11-26T20:49:07.651Z,14.20
2018-11-26T20:51:36.177Z,13.90
2018-11-26T20:54:04.526Z,13.53
2018-11-26T20:56:32.864Z,13.87
2018-11-26T20:59:01.197Z,13.53
2018-11-26T21:01:29.599Z,13.07
2018-11-26T21:03:57.963Z,13.80
2018-11-26T21:06:26.300Z,13.43
2018-11-26T21:08:54.770Z,13.10
2018-11-26T21:11:23.191Z,13.67
2018-11-26T21:13:51.505Z,13.07
2018-11-26T21:16:19.907Z,16.37
2018-11-26T21:18:48.218Z,14.00
2018-11-26T21:21:16.657Z,30.03
2018-11-26T21:23:45.014Z,29.60
2018-11-26T21:26:13.405Z,12.43
2018-11-26T21:28:41.778Z,12.37
2018-11-26T21:31:10.183Z,12.10
2018-11-26T21:33:38.487Z,12.53
2018-11-26T21:36:07.119Z,12.17
2018-11-26T21:38:37.436Z,11.50
2018-11-26T21:41:06.393Z,11.63
2018-11-26T21:43:34.749Z,11.13
2018-11-26T21:46:03.257Z,12.23
2018-11-26T21:48:31.596Z,11.43
2018-11-26T21:50:59.945Z,10.93
2018-11-26T21:53:28.290Z,11.77
2018-11-26T21:55:56.632Z,11.23
2018-11-26T21:58:24.972Z,10.87
2018-11-26T22:00:55.137Z,10.67
2018-11-26T22:03:23.486Z,10.53
2018-11-26T22:05:51.881Z,10.30
2018-11-26T22:08:20.202Z,10.47
2018-11-26T22:10:48.546Z,10.00
2018-11-26T22:13:19.501Z,9.70
2018-11-26T22:15:47.806Z,9.53
2018-11-26T22:18:16.133Z,10.03
2018-11-26T22:20:44.479Z,9.47
2018-11-26T22:23:12.798Z,9.60
2018-11-26T22:25:41.078Z,9.53
2018-11-26T22:28:10.481Z,9.30
2018-11-26T22:30:39.510Z,8.90
2018-11-26T22:33:09.024Z,9.23
2018-11-26T22:35:36.175Z,9.60
2018-11-26T22:38:04.474Z,9.20
2018-11-26T22:40:32.785Z,9.50
2018-11-26T22:43:01.143Z,8.47
2018-11-26T22:45:31.076Z,9.10
2018-11-26T22:48:18.619Z,8.67
2018-11-26T22:50:46.956Z,8.23
2018-11-26T22:53:15.294Z,9.07
2018-11-26T22:55:44.322Z,8.27
2018-11-26T22:58:13.520Z,8.33
2018-11-26T23:00:51.842Z,8.60
2018-11-26T23:03:21.538Z,8.00
2018-11-26T23:05:49.840Z,7.90
2018-11-26T23:08:18.151Z,7.53
2018-11-26T23:10:46.465Z,9.03
2018-11-26T23:13:14.975Z,9.40
2018-11-26T23:15:43.396Z,8.67
2018-11-26T23:18:11.747Z,8.53
2018-11-26T23:20:40.047Z,8.60
2018-11-26T23:23:08.416Z,8.70
2018-11-26T23:25:36.693Z,8.93
2018-11-26T23:28:05.353Z,8.53
2018-11-26T23:30:33.658Z,9.30
2018-11-26T23:33:03.034Z,8.90
2018-11-26T23:35:31.346Z,9.07
2018-11-26T23:37:59.750Z,9.30
2018-11-26T23:40:28.056Z,8.70
2018-11-26T23:42:56.362Z,8.30
2018-11-26T23:45:25.730Z,9.30
2018-11-26T23:47:54.082Z,8.63
2018-11-26T23:50:22.600Z,8.73
2018-11-26T23:52:50.898Z,9.07
2018-11-26T23:55:20.284Z,8.50
2018-11-26T23:57:48.589Z,8.53
